sensor_id;sensor_type;location;lat;lon;timestamp;temperature;humidity
19561;DHT22;9927;47.792;10.616;2023-02-11T04:01:26;-4.50;99.90
19561;DHT22;9927;47.792;10.616;2023-02-11T04:03:53;-4.50;99.90
19561;DHT22;9927;47.792;10.616;2023-02-11T04:06:20;-4.40;99.90
19561;DHT22;9927;47.792;10.616;2023-02-11T04:08:47;-4.40;99.90
19561;DHT22;9927;47.792;10.616;2023-02-11T04:11:15;-4.30;99.90
19561;DHT22;9927;47.792;10.616;2023-02-11T04:13:42;-4.20;99.90
19561;DHT22;9927;47.792;10.616;2023-02-11T04:16:09;-4.10;99.90
19561;DHT22;9927;47.792;10.616;2023-02-11T04:18:36;-4.10;99.90
19561;DHT22;9927;47.792;10.616;2023-02-11T04:21:04;-4.10;99.90
19561;DHT22;9927;47.792;10.616;2023-02-11T04:23:31;-4.10;99.90
19561;DHT22;9927;47.792;10.616;2023-02-11T04:25:58;-4.10;99.90
19561;DHT22;9927;47.792;10.616;2023-02-11T04:28:25;-4.10;99.90
19561;DHT22;9927;47.792;10.616;2023-02-11T04:30:55;-4.00;99.90
19561;DHT22;9927;47.792;10.616;2023-02-11T04:33:23;-4.00;99.90
19561;DHT22;9927;47.792;10.616;2023-02-11T04:35:50;-3.90;99.90
19561;DHT22;9927;47.792;10.616;2023-02-11T04:38:18;-3.80;99.90
19561;DHT22;9927;47.792;10.616;2023-02-11T04:40:45;-3.80;99.90
19561;DHT22;9927;47.792;10.616;2023-02-11T04:43:13;-3.70;99.90
19561;DHT22;9927;47.792;10.616;2023-02-11T04:45:40;-3.70;99.90
19561;DHT22;9927;47.792;10.616;2023-02-11T04:48:07;-3.70;99.90
19561;DHT22;9927;47.792;10.616;2023-02-11T04:50:34;-3.70;99.90
19561;DHT22;9927;47.792;10.616;2023-02-11T04:53:02;-3.80;99.90
19561;DHT22;9927;47.792;10.616;2023-02-11T04:55:29;-3.70;99.90
19561;DHT22;9927;47.792;10.616;2023-02-11T04:57:56;-3.70;99.90
19561;DHT22;9927;47.792;10.616;2023-02-11T05:00:23;-3.70;99.90
19561;DHT22;9927;47.792;10.616;2023-02-11T05:02:50;-3.70;99.90
19561;DHT22;9927;47.792;10.616;2023-02-11T05:05:17;-3.80;99.90
19561;DHT22;9927;47.792;10.616;2023-02-11T05:07:45;-3.80;99.90
19561;DHT22;9927;47.792;10.616;2023-02-11T05:10:13;-3.70;99.90
19561;DHT22;9927;47.792;10.616;2023-02-11T05:12:40;-3.70;99.90
19561;DHT22;9927;47.792;10.616;2023-02-11T05:15:07;-3.70;99.90
19561;DHT22;9927;47.792;10.616;2023-02-11T05:17:34;-3.60;99.90
19561;DHT22;9927;47.792;10.616;2023-02-11T05:20:02;-3.50;99.90
19561;DHT22;9927;47.792;10.616;2023-02-11T05:22:29;-3.40;99.90
19561;DHT22;9927;47.792;10.616;2023-02-11T05:24:56;-3.50;99.90
19561;DHT22;9927;47.792;10.616;2023-02-11T05:27:24;-3.50;99.90
19561;DHT22;9927;47.792;10.616;2023-02-11T05:29:51;-3.60;99.90
19561;DHT22;9927;47.792;10.616;2023-02-11T05:32:18;-3.60;99.90
19561;DHT22;9927;47.792;10.616;2023-02-11T05:34:45;-3.60;99.90
19561;DHT22;9927;47.792;10.616;2023-02-11T05:37:12;-3.50;99.90
19561;DHT22;9927;47.792;10.616;2023-02-11T05:39:40;-3.60;99.90
19561;DHT22;9927;47.792;10.616;2023-02-11T05:42:07;-3.50;99.90
19561;DHT22;9927;47.792;10.616;2023-02-11T05:44:34;-3.50;99.90
19561;DHT22;9927;47.792;10.616;2023-02-11T05:47:02;-3.40;99.90
19561;DHT22;9927;47.792;10.616;2023-02-11T05:49:29;-3.30;99.90
19561;DHT22;9927;47.792;10.616;2023-02-11T05:51:56;-3.30;99.90
19561;DHT22;9927;47.792;10.616;2023-02-11T05:54:24;-3.10;99.90
19561;DHT22;9927;47.792;10.616;2023-02-11T05:59:19;-3.00;99.90
19561;DHT22;9927;47.792;10.616;2023-02-11T06:01:46;-3.00;99.90
19561;DHT22;9927;47.792;10.616;2023-02-11T06:04:14;-2.90;99.90
19561;DHT22;9927;47.792;10.616;2023-02-11T06:06:41;-2.80;99.90
19561;DHT22;9927;47.792;10.616;2023-02-11T06:09:09;-2.80;99.90
19561;DHT22;9927;47.792;10.616;2023-02-11T06:11:36;-2.70;99.90
19561;DHT22;9927;47.792;10.616;2023-02-11T06:14:04;-2.60;99.90
19561;DHT22;9927;47.792;10.616;2023-02-11T06:16:33;-2.60;99.90
19561;DHT22;9927;47.792;10.616;2023-02-11T06:19:00;-2.70;99.90
19561;DHT22;9927;47.792;10.616;2023-02-11T06:21:28;-2.60;99.90
19561;DHT22;9927;47.792;10.616;2023-02-11T06:24:10;-2.50;99.90
19561;DHT22;9927;47.792;10.616;2023-02-11T06:26:38;-2.50;99.90
19561;DHT22;9927;47.792;10.616;2023-02-11T06:29:05;-2.70;99.90
19561;DHT22;9927;47.792;10.616;2023-02-11T06:31:32;-2.90;99.90
19561;DHT22;9927;47.792;10.616;2023-02-11T06:33:59;-2.70;99.90
19561;DHT22;9927;47.792;10.616;2023-02-11T06:41:22;-2.30;99.90
19561;DHT22;9927;47.792;10.616;2023-02-11T06:43:51;-2.30;99.90
19561;DHT22;9927;47.792;10.616;2023-02-11T06:46:19;-2.10;99.90
19561;DHT22;9927;47.792;10.616;2023-02-11T06:48:46;-2.20;99.90
19561;DHT22;9927;47.792;10.616;2023-02-11T06:51:14;-2.10;99.90
19561;DHT22;9927;47.792;10.616;2023-02-11T06:53:45;-2.10;99.90
19561;DHT22;9927;47.792;10.616;2023-02-11T06:56:18;-2.20;99.90
19561;DHT22;9927;47.792;10.616;2023-02-11T06:58:45;-2.30;99.90
19561;DHT22;9927;47.792;10.616;2023-02-11T07:01:15;-2.30;99.90
19561;DHT22;9927;47.792;10.616;2023-02-11T07:03:43;-2.20;99.90
19561;DHT22;9927;47.792;10.616;2023-02-11T07:06:13;-2.10;99.90
19561;DHT22;9927;47.792;10.616;2023-02-11T07:08:41;-1.90;99.90
19561;DHT22;9927;47.792;10.616;2023-02-11T07:11:11;-1.80;99.90
19561;DHT22;9927;47.792;10.616;2023-02-11T07:13:38;-1.70;99.90
19561;DHT22;9927;47.792;10.616;2023-02-11T07:16:07;-1.70;99.90
19561;DHT22;9927;47.792;10.616;2023-02-11T07:18:35;-1.80;99.90
19561;DHT22;9927;47.792;10.616;2023-02-11T07:21:06;-1.80;99.90
19561;DHT22;9927;47.792;10.616;2023-02-11T07:23:34;-1.60;99.90
19561;DHT22;9927;47.792;10.616;2023-02-11T07:26:06;-1.40;99.90
19561;DHT22;9927;47.792;10.616;2023-02-11T07:28:35;-1.50;99.90
19561;DHT22;9927;47.792;10.616;2023-02-11T07:31:31;-1.40;99.90
19561;DHT22;9927;47.792;10.616;2023-02-11T07:34:00;-1.20;99.90
19561;DHT22;9927;47.792;10.616;2023-02-11T07:36:29;-1.30;99.90
19561;DHT22;9927;47.792;10.616;2023-02-11T07:38:58;-1.20;99.90
19561;DHT22;9927;47.792;10.616;2023-02-11T07:41:26;-1.00;99.90
19561;DHT22;9927;47.792;10.616;2023-02-11T07:43:54;-1.00;99.90
19561;DHT22;9927;47.792;10.616;2023-02-11T07:46:24;-1.10;99.90
19561;DHT22;9927;47.792;10.616;2023-02-11T07:48:52;-1.00;99.90
19561;DHT22;9927;47.792;10.616;2023-02-11T07:51:23;-1.00;99.90
19561;DHT22;9927;47.792;10.616;2023-02-11T07:53:51;-1.00;99.90
19561;DHT22;9927;47.792;10.616;2023-02-11T07:56:19;-0.80;99.90
19561;DHT22;9927;47.792;10.616;2023-02-11T07:58:47;-0.60;99.90
19561;DHT22;9927;47.792;10.616;2023-02-11T08:01:21;-0.40;99.90
19561;DHT22;9927;47.792;10.616;2023-02-11T08:03:51;-0.40;99.90
19561;DHT22;9927;47.792;10.616;2023-02-11T08:06:20;-0.20;99.90
19561;DHT22;9927;47.792;10.616;2023-02-11T08:08:48;0.10;99.90
19561;DHT22;9927;47.792;10.616;2023-02-11T08:11:24;0.40;99.90
19561;DHT22;9927;47.792;10.616;2023-02-11T08:13:52;0.50;99.90
19561;DHT22;9927;47.792;10.616;2023-02-11T08:16:28;0.60;99.90
19561;DHT22;9927;47.792;10.616;2023-02-11T08:18:57;0.60;99.90
19561;DHT22;9927;47.792;10.616;2023-02-11T08:21:25;0.50;99.90
19561;DHT22;9927;47.792;10.616;2023-02-11T08:23:52;0.30;99.90
19561;DHT22;9927;47.792;10.616;2023-02-11T08:26:26;0.30;99.90
19561;DHT22;9927;47.792;10.616;2023-02-11T08:28:55;0.40;99.90
19561;DHT22;9927;47.792;10.616;2023-02-11T08:31:25;0.50;99.90
19561;DHT22;9927;47.792;10.616;2023-02-11T08:33:53;0.70;99.90
19561;DHT22;9927;47.792;10.616;2023-02-11T08:36:25;0.80;99.90
19561;DHT22;9927;47.792;10.616;2023-02-11T08:38:56;0.80;99.90
19561;DHT22;9927;47.792;10.616;2023-02-11T08:41:44;1.10;99.90
19561;DHT22;9927;47.792;10.616;2023-02-11T08:44:11;1.60;99.90
19561;DHT22;9927;47.792;10.616;2023-02-11T08:46:38;1.70;99.90
19561;DHT22;9927;47.792;10.616;2023-02-11T08:49:05;1.90;99.90
19561;DHT22;9927;47.792;10.616;2023-02-11T08:51:33;1.90;99.90
19561;DHT22;9927;47.792;10.616;2023-02-11T08:54:00;2.10;99.90
19561;DHT22;9927;47.792;10.616;2023-02-11T08:56:28;2.30;99.90
19561;DHT22;9927;47.792;10.616;2023-02-11T08:58:57;2.30;99.90
19561;DHT22;9927;47.792;10.616;2023-02-11T09:01:27;2.30;99.90
19561;DHT22;9927;47.792;10.616;2023-02-11T09:03:55;2.40;99.90
19561;DHT22;9927;47.792;10.616;2023-02-11T09:06:24;2.60;99.90
19561;DHT22;9927;47.792;10.616;2023-02-11T09:08:53;2.80;99.90
19561;DHT22;9927;47.792;10.616;2023-02-11T09:11:28;2.70;99.90
19561;DHT22;9927;47.792;10.616;2023-02-11T09:13:56;2.90;99.90
19561;DHT22;9927;47.792;10.616;2023-02-11T09:16:26;2.90;99.90
19561;DHT22;9927;47.792;10.616;2023-02-11T09:18:56;3.20;99.90
19561;DHT22;9927;47.792;10.616;2023-02-11T09:21:23;3.50;99.90
19561;DHT22;9927;47.792;10.616;2023-02-11T09:23:51;3.70;99.90
19561;DHT22;9927;47.792;10.616;2023-02-11T09:26:24;3.80;99.90
19561;DHT22;9927;47.792;10.616;2023-02-11T09:28:51;3.90;99.90
19561;DHT22;9927;47.792;10.616;2023-02-11T09:31:22;3.90;99.90
19561;DHT22;9927;47.792;10.616;2023-02-11T09:33:56;3.80;99.90
19561;DHT22;9927;47.792;10.616;2023-02-11T09:36:26;3.60;99.90
19561;DHT22;9927;47.792;10.616;2023-02-11T09:38:56;3.40;99.90
19561;DHT22;9927;47.792;10.616;2023-02-11T09:44:21;4.10;99.90
19561;DHT22;9927;47.792;10.616;2023-02-11T09:47:03;4.30;99.90
19561;DHT22;9927;47.792;10.616;2023-02-11T09:49:38;4.40;99.90
19561;DHT22;9927;47.792;10.616;2023-02-11T09:52:17;4.30;99.90
19561;DHT22;9927;47.792;10.616;2023-02-11T09:54:58;4.60;99.90
19561;DHT22;9927;47.792;10.616;2023-02-11T09:57:31;4.90;99.90
19561;DHT22;9927;47.792;10.616;2023-02-11T10:00:00;5.20;99.90
19561;DHT22;9927;47.792;10.616;2023-02-11T10:07:55;5.40;95.70
19561;DHT22;9927;47.792;10.616;2023-02-11T10:13:16;5.80;95.70
19561;DHT22;9927;47.792;10.616;2023-02-11T10:16:01;5.80;93.70
19561;DHT22;9927;47.792;10.616;2023-02-11T10:21:31;6.20;94.70
19561;DHT22;9927;47.792;10.616;2023-02-11T10:24:04;6.60;94.50
19561;DHT22;9927;47.792;10.616;2023-02-11T10:26:37;6.80;94.60
19561;DHT22;9927;47.792;10.616;2023-02-11T10:29:48;7.00;92.10
19561;DHT22;9927;47.792;10.616;2023-02-11T10:32:22;6.80;90.90
19561;DHT22;9927;47.792;10.616;2023-02-11T10:34:55;6.90;90.20
19561;DHT22;9927;47.792;10.616;2023-02-11T10:37:24;7.00;92.00
19561;DHT22;9927;47.792;10.616;2023-02-11T10:39:51;7.30;91.90
19561;DHT22;9927;47.792;10.616;2023-02-11T10:42:19;7.50;92.80
19561;DHT22;9927;47.792;10.616;2023-02-11T10:45:03;7.50;92.40
19561;DHT22;9927;47.792;10.616;2023-02-11T10:47:36;7.50;92.10
19561;DHT22;9927;47.792;10.616;2023-02-11T10:50:20;7.30;91.50
19561;DHT22;9927;47.792;10.616;2023-02-11T10:52:48;7.50;90.90
19561;DHT22;9927;47.792;10.616;2023-02-11T10:55:21;7.40;92.00
19561;DHT22;9927;47.792;10.616;2023-02-11T10:58:00;7.20;91.30
19561;DHT22;9927;47.792;10.616;2023-02-11T11:00:39;7.60;89.60
19561;DHT22;9927;47.792;10.616;2023-02-11T11:03:18;7.60;90.20
19561;DHT22;9927;47.792;10.616;2023-02-11T11:05:51;7.70;91.10
19561;DHT22;9927;47.792;10.616;2023-02-11T11:08:19;8.00;90.10
19561;DHT22;9927;47.792;10.616;2023-02-11T11:11:00;8.00;89.70
19561;DHT22;9927;47.792;10.616;2023-02-11T11:13:37;8.00;88.40
19561;DHT22;9927;47.792;10.616;2023-02-11T11:18:40;8.30;87.50
19561;DHT22;9927;47.792;10.616;2023-02-11T11:23:47;7.80;89.20
19561;DHT22;9927;47.792;10.616;2023-02-11T11:26:16;8.00;90.20
19561;DHT22;9927;47.792;10.616;2023-02-11T11:29:05;8.40;90.80
19561;DHT22;9927;47.792;10.616;2023-02-11T11:36:49;8.90;89.30
19561;DHT22;9927;47.792;10.616;2023-02-11T11:39:26;8.90;86.70
19561;DHT22;9927;47.792;10.616;2023-02-11T11:42:20;8.70;81.70
19561;DHT22;9927;47.792;10.616;2023-02-11T11:45:17;8.80;82.70
19561;DHT22;9927;47.792;10.616;2023-02-11T11:48:08;8.80;81.10
19561;DHT22;9927;47.792;10.616;2023-02-11T11:50:44;8.80;81.60
19561;DHT22;9927;47.792;10.616;2023-02-11T11:56:02;9.00;80.90
19561;DHT22;9927;47.792;10.616;2023-02-11T11:58:31;9.00;78.40
19561;DHT22;9927;47.792;10.616;2023-02-11T12:06:41;8.90;76.40
19561;DHT22;9927;47.792;10.616;2023-02-11T12:09:35;9.00;76.70
19561;DHT22;9927;47.792;10.616;2023-02-11T12:18:29;9.20;74.40
19561;DHT22;9927;47.792;10.616;2023-02-11T12:26:22;9.20;79.40
19561;DHT22;9927;47.792;10.616;2023-02-11T12:57:34;9.00;73.40
19561;DHT22;9927;47.792;10.616;2023-02-11T13:03:02;8.90;74.30
19561;DHT22;9927;47.792;10.616;2023-02-11T13:05:43;8.90;71.90
19561;DHT22;9927;47.792;10.616;2023-02-11T13:08:20;8.90;75.30
19561;DHT22;9927;47.792;10.616;2023-02-11T13:10:53;9.00;77.20
19561;DHT22;9927;47.792;10.616;2023-02-11T13:13:22;9.20;77.80
19561;DHT22;9927;47.792;10.616;2023-02-11T13:16:18;9.30;76.60
19561;DHT22;9927;47.792;10.616;2023-02-11T13:18:54;9.10;75.40
19561;DHT22;9927;47.792;10.616;2023-02-11T13:32:12;8.80;75.10
19561;DHT22;9927;47.792;10.616;2023-02-11T13:37:21;8.50;78.40
19561;DHT22;9927;47.792;10.616;2023-02-11T13:40:19;8.40;76.80
19561;DHT22;9927;47.792;10.616;2023-02-11T13:43:02;8.40;74.80
19561;DHT22;9927;47.792;10.616;2023-02-11T13:45:37;8.40;74.80
19561;DHT22;9927;47.792;10.616;2023-02-11T13:48:22;8.40;76.20
19561;DHT22;9927;47.792;10.616;2023-02-11T13:50:54;8.40;73.70
19561;DHT22;9927;47.792;10.616;2023-02-11T13:53:22;8.40;76.00
19561;DHT22;9927;47.792;10.616;2023-02-11T13:55:52;8.40;76.10
19561;DHT22;9927;47.792;10.616;2023-02-11T14:00:53;8.40;75.10
19561;DHT22;9927;47.792;10.616;2023-02-11T14:03:24;8.50;76.50
19561;DHT22;9927;47.792;10.616;2023-02-11T14:19:31;8.80;68.90
19561;DHT22;9927;47.792;10.616;2023-02-11T14:24:50;9.00;69.40
19561;DHT22;9927;47.792;10.616;2023-02-11T14:27:42;9.00;70.40
19561;DHT22;9927;47.792;10.616;2023-02-11T14:33:29;9.00;69.70
19561;DHT22;9927;47.792;10.616;2023-02-11T14:41:19;8.90;73.20
19561;DHT22;9927;47.792;10.616;2023-02-11T14:47:05;8.90;73.20
19561;DHT22;9927;47.792;10.616;2023-02-11T14:49:38;8.90;73.60
19561;DHT22;9927;47.792;10.616;2023-02-11T14:54:44;8.90;75.10
19561;DHT22;9927;47.792;10.616;2023-02-11T14:57:16;9.00;76.10
19561;DHT22;9927;47.792;10.616;2023-02-11T14:59:57;8.80;75.00
19561;DHT22;9927;47.792;10.616;2023-02-11T15:02:32;8.90;77.50
19561;DHT22;9927;47.792;10.616;2023-02-11T15:05:25;9.00;80.10
19561;DHT22;9927;47.792;10.616;2023-02-11T15:07:58;9.00;79.70
19561;DHT22;9927;47.792;10.616;2023-02-11T15:10:30;8.90;80.90
19561;DHT22;9927;47.792;10.616;2023-02-11T15:13:00;8.80;80.30
19561;DHT22;9927;47.792;10.616;2023-02-11T15:15:29;8.80;80.50
19561;DHT22;9927;47.792;10.616;2023-02-11T15:17:58;8.70;79.40
19561;DHT22;9927;47.792;10.616;2023-02-11T15:20:29;8.60;80.40
19561;DHT22;9927;47.792;10.616;2023-02-11T15:23:04;8.50;79.90
19561;DHT22;9927;47.792;10.616;2023-02-11T15:25:42;8.50;78.90
19561;DHT22;9927;47.792;10.616;2023-02-11T15:28:25;8.40;77.20
19561;DHT22;9927;47.792;10.616;2023-02-11T15:31:04;8.30;78.00
19561;DHT22;9927;47.792;10.616;2023-02-11T15:33:32;8.20;80.80
19561;DHT22;9927;47.792;10.616;2023-02-11T15:36:01;8.10;78.30
19561;DHT22;9927;47.792;10.616;2023-02-11T15:38:29;8.00;77.20
19561;DHT22;9927;47.792;10.616;2023-02-11T15:41:01;7.90;77.40
19561;DHT22;9927;47.792;10.616;2023-02-11T15:43:45;7.80;79.30
19561;DHT22;9927;47.792;10.616;2023-02-11T15:46:17;7.70;79.00
19561;DHT22;9927;47.792;10.616;2023-02-11T15:48:54;7.60;79.50
19561;DHT22;9927;47.792;10.616;2023-02-11T15:51:22;7.50;80.90
19561;DHT22;9927;47.792;10.616;2023-02-11T15:53:54;7.40;83.50
19561;DHT22;9927;47.792;10.616;2023-02-11T15:56:26;7.30;83.30
19561;DHT22;9927;47.792;10.616;2023-02-11T15:59:07;7.20;82.00
19561;DHT22;9927;47.792;10.616;2023-02-11T16:01:36;7.10;81.90
19561;DHT22;9927;47.792;10.616;2023-02-11T16:04:04;7.10;79.60
19561;DHT22;9927;47.792;10.616;2023-02-11T16:11:54;6.90;76.60
19561;DHT22;9927;47.792;10.616;2023-02-11T16:14:33;6.90;76.00
19561;DHT22;9927;47.792;10.616;2023-02-11T16:19:47;6.80;75.90
19561;DHT22;9927;47.792;10.616;2023-02-11T16:22:26;6.70;76.70
19561;DHT22;9927;47.792;10.616;2023-02-11T16:24:57;6.70;76.40
19561;DHT22;9927;47.792;10.616;2023-02-11T16:27:28;6.60;77.60
19561;DHT22;9927;47.792;10.616;2023-02-11T16:29:57;6.50;77.90
19561;DHT22;9927;47.792;10.616;2023-02-11T16:32:26;6.40;77.70
19561;DHT22;9927;47.792;10.616;2023-02-11T16:34:56;6.30;78.10
19561;DHT22;9927;47.792;10.616;2023-02-11T16:37:24;6.30;78.20
19561;DHT22;9927;47.792;10.616;2023-02-11T16:39:57;6.10;78.20
19561;DHT22;9927;47.792;10.616;2023-02-11T16:42:25;6.00;79.20
19561;DHT22;9927;47.792;10.616;2023-02-11T16:44:52;6.00;78.80
19561;DHT22;9927;47.792;10.616;2023-02-11T16:47:23;5.90;79.60
19561;DHT22;9927;47.792;10.616;2023-02-11T16:49:51;5.90;80.90
19561;DHT22;9927;47.792;10.616;2023-02-11T16:52:20;6.00;81.10
19561;DHT22;9927;47.792;10.616;2023-02-11T16:54:47;5.90;81.50
19561;DHT22;9927;47.792;10.616;2023-02-11T16:57:17;5.90;81.80
19561;DHT22;9927;47.792;10.616;2023-02-11T16:59:44;5.90;82.00
19561;DHT22;9927;47.792;10.616;2023-02-11T17:02:19;6.00;81.50
19561;DHT22;9927;47.792;10.616;2023-02-11T17:04:52;6.00;81.10
19561;DHT22;9927;47.792;10.616;2023-02-11T17:07:20;6.00;81.50
19561;DHT22;9927;47.792;10.616;2023-02-11T17:09:47;6.00;82.20
19561;DHT22;9927;47.792;10.616;2023-02-11T17:12:14;5.90;82.30
19561;DHT22;9927;47.792;10.616;2023-02-11T17:14:42;5.70;84.30
19561;DHT22;9927;47.792;10.616;2023-02-11T17:17:10;5.60;87.70
19561;DHT22;9927;47.792;10.616;2023-02-11T17:19:37;5.50;90.30
19561;DHT22;9927;47.792;10.616;2023-02-11T17:22:05;5.40;91.20
19561;DHT22;9927;47.792;10.616;2023-02-11T17:24:32;5.40;91.90
19561;DHT22;9927;47.792;10.616;2023-02-11T17:26:59;5.40;92.20
19561;DHT22;9927;47.792;10.616;2023-02-11T17:29:26;5.40;92.10
19561;DHT22;9927;47.792;10.616;2023-02-11T17:31:54;5.30;91.80
19561;DHT22;9927;47.792;10.616;2023-02-11T17:34:22;5.30;91.70
19561;DHT22;9927;47.792;10.616;2023-02-11T17:36:49;5.30;92.10
19561;DHT22;9927;47.792;10.616;2023-02-11T17:39:17;5.20;91.90
19561;DHT22;9927;47.792;10.616;2023-02-11T17:41:47;5.00;92.40
19561;DHT22;9927;47.792;10.616;2023-02-11T17:44:14;5.00;93.20
19561;DHT22;9927;47.792;10.616;2023-02-11T17:46:42;4.90;94.10
19561;DHT22;9927;47.792;10.616;2023-02-11T17:49:10;4.80;94.20
19561;DHT22;9927;47.792;10.616;2023-02-11T17:51:38;4.50;96.00
19561;DHT22;9927;47.792;10.616;2023-02-11T17:54:09;4.30;97.10
19561;DHT22;9927;47.792;10.616;2023-02-11T17:56:37;4.30;97.70
19561;DHT22;9927;47.792;10.616;2023-02-11T17:59:06;4.40;98.00
19561;DHT22;9927;47.792;10.616;2023-02-11T18:01:35;4.50;97.80
19561;DHT22;9927;47.792;10.616;2023-02-11T18:04:04;4.60;97.50
19561;DHT22;9927;47.792;10.616;2023-02-11T18:06:32;4.50;97.10
19561;DHT22;9927;47.792;10.616;2023-02-11T18:09:02;4.40;96.80
19561;DHT22;9927;47.792;10.616;2023-02-11T18:11:32;4.50;96.90
19561;DHT22;9927;47.792;10.616;2023-02-11T18:14:01;4.50;97.30
19561;DHT22;9927;47.792;10.616;2023-02-11T18:16:28;4.60;97.40
19561;DHT22;9927;47.792;10.616;2023-02-11T18:18:57;4.50;98.10
19561;DHT22;9927;47.792;10.616;2023-02-11T18:21:24;4.60;99.20
19561;DHT22;9927;47.792;10.616;2023-02-11T18:23:52;4.50;99.00
19561;DHT22;9927;47.792;10.616;2023-02-11T18:26:20;4.40;99.40
19561;DHT22;9927;47.792;10.616;2023-02-11T18:28:47;4.40;99.50
19561;DHT22;9927;47.792;10.616;2023-02-11T18:31:16;4.50;99.70
19561;DHT22;9927;47.792;10.616;2023-02-11T18:33:44;4.50;99.40
19561;DHT22;9927;47.792;10.616;2023-02-11T18:36:13;4.40;99.90
19561;DHT22;9927;47.792;10.616;2023-02-11T18:38:41;4.40;99.90
19561;DHT22;9927;47.792;10.616;2023-02-11T18:41:11;4.20;99.90
19561;DHT22;9927;47.792;10.616;2023-02-11T18:43:38;4.20;99.90
19561;DHT22;9927;47.792;10.616;2023-02-11T18:46:09;4.20;99.90
19561;DHT22;9927;47.792;10.616;2023-02-11T18:48:37;4.30;99.90
19561;DHT22;9927;47.792;10.616;2023-02-11T18:51:13;4.30;99.90
19561;DHT22;9927;47.792;10.616;2023-02-11T18:53:41;4.30;99.90
19561;DHT22;9927;47.792;10.616;2023-02-11T18:56:21;4.30;99.90
19561;DHT22;9927;47.792;10.616;2023-02-11T18:58:48;4.30;99.90
19561;DHT22;9927;47.792;10.616;2023-02-11T19:01:19;4.30;99.90
19561;DHT22;9927;47.792;10.616;2023-02-11T19:03:49;4.30;99.90
19561;DHT22;9927;47.792;10.616;2023-02-11T19:06:18;4.30;99.90
19561;DHT22;9927;47.792;10.616;2023-02-11T19:08:46;4.30;99.90
19561;DHT22;9927;47.792;10.616;2023-02-11T19:11:14;4.30;99.90
19561;DHT22;9927;47.792;10.616;2023-02-11T19:13:44;4.20;99.90
19561;DHT22;9927;47.792;10.616;2023-02-11T19:16:13;4.30;99.90
19561;DHT22;9927;47.792;10.616;2023-02-11T19:18:42;4.10;99.90
19561;DHT22;9927;47.792;10.616;2023-02-11T19:21:11;3.90;99.90
19561;DHT22;9927;47.792;10.616;2023-02-11T19:23:38;3.90;99.90
19561;DHT22;9927;47.792;10.616;2023-02-11T19:26:05;4.00;99.90
19561;DHT22;9927;47.792;10.616;2023-02-11T19:28:33;4.00;99.90
19561;DHT22;9927;47.792;10.616;2023-02-11T19:31:07;4.00;99.90
19561;DHT22;9927;47.792;10.616;2023-02-11T19:33:35;3.90;99.90
19561;DHT22;9927;47.792;10.616;2023-02-11T19:36:06;3.80;99.90
19561;DHT22;9927;47.792;10.616;2023-02-11T19:38:34;3.70;99.90
19561;DHT22;9927;47.792;10.616;2023-02-11T19:41:01;3.70;99.90
19561;DHT22;9927;47.792;10.616;2023-02-11T19:43:28;3.70;99.90
19561;DHT22;9927;47.792;10.616;2023-02-11T19:45:56;3.70;99.90
19561;DHT22;9927;47.792;10.616;2023-02-11T19:48:24;3.80;99.90
19561;DHT22;9927;47.792;10.616;2023-02-11T19:50:51;3.80;99.90
19561;DHT22;9927;47.792;10.616;2023-02-11T19:53:19;3.80;99.90
19561;DHT22;9927;47.792;10.616;2023-02-11T19:55:47;3.90;99.90
19561;DHT22;9927;47.792;10.616;2023-02-11T19:58:15;3.80;99.90
19561;DHT22;9927;47.792;10.616;2023-02-11T20:00:43;3.80;99.90
19561;DHT22;9927;47.792;10.616;2023-02-11T20:03:10;3.70;99.90
19561;DHT22;9927;47.792;10.616;2023-02-11T20:05:39;3.70;99.90
19561;DHT22;9927;47.792;10.616;2023-02-11T20:08:09;3.80;99.90
19561;DHT22;9927;47.792;10.616;2023-02-11T20:10:37;3.70;99.90
19561;DHT22;9927;47.792;10.616;2023-02-11T20:13:04;3.70;99.90
19561;DHT22;9927;47.792;10.616;2023-02-11T20:15:31;3.70;99.90
19561;DHT22;9927;47.792;10.616;2023-02-11T20:17:58;3.40;99.90
19561;DHT22;9927;47.792;10.616;2023-02-11T20:20:26;3.40;99.90
19561;DHT22;9927;47.792;10.616;2023-02-11T20:22:53;3.50;99.90
19561;DHT22;9927;47.792;10.616;2023-02-11T20:25:20;3.30;99.90
19561;DHT22;9927;47.792;10.616;2023-02-11T20:27:47;3.30;99.90
19561;DHT22;9927;47.792;10.616;2023-02-11T20:30:15;3.40;99.90
19561;DHT22;9927;47.792;10.616;2023-02-11T20:32:42;3.50;99.90
19561;DHT22;9927;47.792;10.616;2023-02-11T20:35:10;3.50;99.90
19561;DHT22;9927;47.792;10.616;2023-02-11T20:37:37;3.50;99.90
19561;DHT22;9927;47.792;10.616;2023-02-11T20:40:05;3.50;99.90
19561;DHT22;9927;47.792;10.616;2023-02-11T20:42:33;3.40;99.90
19561;DHT22;9927;47.792;10.616;2023-02-11T20:45:00;3.40;99.90
19561;DHT22;9927;47.792;10.616;2023-02-11T20:47:28;3.50;99.90
19561;DHT22;9927;47.792;10.616;2023-02-11T20:49:55;3.40;99.90
19561;DHT22;9927;47.792;10.616;2023-02-11T20:52:22;3.30;99.90
19561;DHT22;9927;47.792;10.616;2023-02-11T20:54:49;3.30;99.90
19561;DHT22;9927;47.792;10.616;2023-02-11T20:57:17;3.20;99.90
19561;DHT22;9927;47.792;10.616;2023-02-11T20:59:44;3.10;99.90
19561;DHT22;9927;47.792;10.616;2023-02-11T21:02:11;3.10;99.90
19561;DHT22;9927;47.792;10.616;2023-02-11T21:04:39;3.10;99.90
19561;DHT22;9927;47.792;10.616;2023-02-11T21:07:06;3.00;99.90
19561;DHT22;9927;47.792;10.616;2023-02-11T21:09:33;3.00;99.90
19561;DHT22;9927;47.792;10.616;2023-02-11T21:12:01;3.00;99.90
19561;DHT22;9927;47.792;10.616;2023-02-11T21:14:29;2.90;99.90
19561;DHT22;9927;47.792;10.616;2023-02-11T21:16:56;2.80;99.90
19561;DHT22;9927;47.792;10.616;2023-02-11T21:19:24;2.70;99.90
19561;DHT22;9927;47.792;10.616;2023-02-11T21:21:51;2.50;99.90
19561;DHT22;9927;47.792;10.616;2023-02-11T21:24:18;2.50;99.90
19561;DHT22;9927;47.792;10.616;2023-02-11T21:26:46;2.40;99.90
19561;DHT22;9927;47.792;10.616;2023-02-11T21:29:13;2.40;99.90
19561;DHT22;9927;47.792;10.616;2023-02-11T21:31:40;2.40;99.90
19561;DHT22;9927;47.792;10.616;2023-02-11T21:34:09;2.30;99.90
19561;DHT22;9927;47.792;10.616;2023-02-11T21:36:36;2.30;99.90
19561;DHT22;9927;47.792;10.616;2023-02-11T21:39:03;2.10;99.90
19561;DHT22;9927;47.792;10.616;2023-02-11T21:41:32;2.00;99.90
19561;DHT22;9927;47.792;10.616;2023-02-11T21:43:59;2.00;99.90
19561;DHT22;9927;47.792;10.616;2023-02-11T21:46:26;2.00;99.90
19561;DHT22;9927;47.792;10.616;2023-02-11T21:48:53;2.00;99.90
19561;DHT22;9927;47.792;10.616;2023-02-11T21:51:23;2.10;99.90
19561;DHT22;9927;47.792;10.616;2023-02-11T21:54:01;2.10;99.90
19561;DHT22;9927;47.792;10.616;2023-02-11T21:56:30;2.00;99.90
19561;DHT22;9927;47.792;10.616;2023-02-11T21:58:58;1.90;99.90
